sensor_id;sensor_type;location;lat;lon;timestamp;P1;durP1;ratioP1;P2;durP2;ratioP2
70150;SDS011;57517;43.562;19.540;2022-08-21T00:01:44;9.55;;;6.47;;
70150;SDS011;57517;43.562;19.540;2022-08-21T00:04:10;10.02;;;5.78;;
70150;SDS011;57517;43.562;19.540;2022-08-21T00:06:37;9.60;;;6.15;;
70150;SDS011;57517;43.562;19.540;2022-08-21T00:09:03;8.65;;;5.75;;
70150;SDS011;57517;43.562;19.540;2022-08-21T00:11:30;8.73;;;5.60;;
70150;SDS011;57517;43.562;19.540;2022-08-21T00:13:57;9.32;;;6.15;;
70150;SDS011;57517;43.562;19.540;2022-08-21T00:16:23;9.88;;;6.10;;
70150;SDS011;57517;43.562;19.540;2022-08-21T00:18:49;8.77;;;5.82;;
70150;SDS011;57517;43.562;19.540;2022-08-21T00:21:15;11.13;;;5.85;;
70150;SDS011;57517;43.562;19.540;2022-08-21T00:23:40;10.02;;;6.65;;
70150;SDS011;57517;43.562;19.540;2022-08-21T00:26:07;9.93;;;6.35;;
70150;SDS011;57517;43.562;19.540;2022-08-21T00:28:33;11.23;;;6.63;;
70150;SDS011;57517;43.562;19.540;2022-08-21T00:30:59;9.43;;;6.20;;
70150;SDS011;57517;43.562;19.540;2022-08-21T00:33:26;11.90;;;6.32;;
70150;SDS011;57517;43.562;19.540;2022-08-21T00:35:52;10.65;;;6.47;;
70150;SDS011;57517;43.562;19.540;2022-08-21T00:38:18;12.43;;;7.75;;
70150;SDS011;57517;43.562;19.540;2022-08-21T00:40:48;10.43;;;6.70;;
70150;SDS011;57517;43.562;19.540;2022-08-21T00:43:24;9.35;;;5.88;;
70150;SDS011;57517;43.562;19.540;2022-08-21T00:45:53;10.45;;;7.03;;
70150;SDS011;57517;43.562;19.540;2022-08-21T00:48:19;9.40;;;6.35;;
70150;SDS011;57517;43.562;19.540;2022-08-21T00:50:48;10.90;;;6.80;;
70150;SDS011;57517;43.562;19.540;2022-08-21T00:53:37;12.05;;;6.70;;
70150;SDS011;57517;43.562;19.540;2022-08-21T00:56:09;10.77;;;6.07;;
70150;SDS011;57517;43.562;19.540;2022-08-21T00:58:37;8.10;;;5.40;;
70150;SDS011;57517;43.562;19.540;2022-08-21T01:01:06;9.90;;;6.20;;
70150;SDS011;57517;43.562;19.540;2022-08-21T01:03:33;12.55;;;6.43;;
70150;SDS011;57517;43.562;19.540;2022-08-21T01:05:59;11.15;;;5.93;;
70150;SDS011;57517;43.562;19.540;2022-08-21T01:08:25;9.70;;;5.78;;
70150;SDS011;57517;43.562;19.540;2022-08-21T01:10:54;9.75;;;5.97;;
70150;SDS011;57517;43.562;19.540;2022-08-21T01:13:21;8.75;;;5.90;;
70150;SDS011;57517;43.562;19.540;2022-08-21T01:15:49;9.35;;;5.43;;
70150;SDS011;57517;43.562;19.540;2022-08-21T01:18:18;12.32;;;5.90;;
70150;SDS011;57517;43.562;19.540;2022-08-21T01:20:56;9.60;;;6.20;;
70150;SDS011;57517;43.562;19.540;2022-08-21T01:23:43;9.85;;;6.20;;
70150;SDS011;57517;43.562;19.540;2022-08-21T01:26:11;11.38;;;6.30;;
70150;SDS011;57517;43.562;19.540;2022-08-21T01:28:45;9.30;;;6.60;;
70150;SDS011;57517;43.562;19.540;2022-08-21T01:31:20;12.13;;;6.18;;
70150;SDS011;57517;43.562;19.540;2022-08-21T01:33:48;7.93;;;5.68;;
70150;SDS011;57517;43.562;19.540;2022-08-21T01:36:14;9.20;;;5.90;;
70150;SDS011;57517;43.562;19.540;2022-08-21T01:38:40;10.52;;;5.78;;
70150;SDS011;57517;43.562;19.540;2022-08-21T01:41:06;10.82;;;6.43;;
70150;SDS011;57517;43.562;19.540;2022-08-21T01:43:31;9.23;;;5.88;;
70150;SDS011;57517;43.562;19.540;2022-08-21T01:45:57;9.23;;;6.22;;
70150;SDS011;57517;43.562;19.540;2022-08-21T01:48:23;11.68;;;7.43;;
70150;SDS011;57517;43.562;19.540;2022-08-21T01:50:49;10.00;;;6.90;;
70150;SDS011;57517;43.562;19.540;2022-08-21T01:53:15;11.40;;;5.85;;
70150;SDS011;57517;43.562;19.540;2022-08-21T01:55:41;11.25;;;6.53;;
70150;SDS011;57517;43.562;19.540;2022-08-21T01:58:08;8.45;;;6.38;;
70150;SDS011;57517;43.562;19.540;2022-08-21T02:00:34;14.50;;;9.18;;
70150;SDS011;57517;43.562;19.540;2022-08-21T02:03:00;11.93;;;8.52;;
70150;SDS011;57517;43.562;19.540;2022-08-21T02:05:26;14.02;;;8.07;;
70150;SDS011;57517;43.562;19.540;2022-08-21T02:07:53;12.50;;;7.55;;
70150;SDS011;57517;43.562;19.540;2022-08-21T02:10:21;14.85;;;9.10;;
70150;SDS011;57517;43.562;19.540;2022-08-21T02:12:49;11.88;;;6.93;;
70150;SDS011;57517;43.562;19.540;2022-08-21T02:15:15;8.55;;;6.18;;
70150;SDS011;57517;43.562;19.540;2022-08-21T02:17:42;9.30;;;6.15;;
70150;SDS011;57517;43.562;19.540;2022-08-21T02:20:14;11.32;;;6.35;;
70150;SDS011;57517;43.562;19.540;2022-08-21T02:22:45;8.20;;;5.32;;
70150;SDS011;57517;43.562;19.540;2022-08-21T02:25:11;9.85;;;5.82;;
70150;SDS011;57517;43.562;19.540;2022-08-21T02:27:38;10.07;;;5.45;;
70150;SDS011;57517;43.562;19.540;2022-08-21T02:30:06;16.77;;;5.90;;
70150;SDS011;57517;43.562;19.540;2022-08-21T02:32:33;10.88;;;5.40;;
70150;SDS011;57517;43.562;19.540;2022-08-21T02:34:59;8.73;;;5.88;;
70150;SDS011;57517;43.562;19.540;2022-08-21T02:37:25;7.22;;;5.07;;
70150;SDS011;57517;43.562;19.540;2022-08-21T02:39:51;11.45;;;5.65;;
70150;SDS011;57517;43.562;19.540;2022-08-21T02:42:17;9.90;;;5.57;;
70150;SDS011;57517;43.562;19.540;2022-08-21T02:44:43;8.70;;;5.75;;
70150;SDS011;57517;43.562;19.540;2022-08-21T02:47:09;10.00;;;5.72;;
70150;SDS011;57517;43.562;19.540;2022-08-21T02:49:35;9.05;;;5.75;;
70150;SDS011;57517;43.562;19.540;2022-08-21T02:52:01;9.52;;;5.53;;
70150;SDS011;57517;43.562;19.540;2022-08-21T02:54:30;10.57;;;5.60;;
70150;SDS011;57517;43.562;19.540;2022-08-21T02:56:56;8.43;;;5.70;;
70150;SDS011;57517;43.562;19.540;2022-08-21T02:59:23;9.93;;;6.53;;
70150;SDS011;57517;43.562;19.540;2022-08-21T03:01:49;9.38;;;5.47;;
70150;SDS011;57517;43.562;19.540;2022-08-21T03:04:15;8.52;;;6.05;;
70150;SDS011;57517;43.562;19.540;2022-08-21T03:06:41;7.85;;;5.40;;
70150;SDS011;57517;43.562;19.540;2022-08-21T03:09:07;7.70;;;5.25;;
70150;SDS011;57517;43.562;19.540;2022-08-21T03:11:33;8.38;;;5.35;;
70150;SDS011;57517;43.562;19.540;2022-08-21T03:14:01;10.25;;;5.53;;
70150;SDS011;57517;43.562;19.540;2022-08-21T03:16:27;7.93;;;5.18;;
70150;SDS011;57517;43.562;19.540;2022-08-21T03:18:53;8.80;;;5.40;;
70150;SDS011;57517;43.562;19.540;2022-08-21T03:21:19;8.07;;;5.30;;
70150;SDS011;57517;43.562;19.540;2022-08-21T03:23:45;9.18;;;5.38;;
70150;SDS011;57517;43.562;19.540;2022-08-21T03:26:12;11.77;;;5.75;;
70150;SDS011;57517;43.562;19.540;2022-08-21T03:28:38;9.55;;;5.47;;
70150;SDS011;57517;43.562;19.540;2022-08-21T03:31:04;7.00;;;5.13;;
70150;SDS011;57517;43.562;19.540;2022-08-21T03:33:30;9.52;;;5.70;;
70150;SDS011;57517;43.562;19.540;2022-08-21T03:36:01;8.80;;;5.90;;
70150;SDS011;57517;43.562;19.540;2022-08-21T03:38:28;10.75;;;5.95;;
70150;SDS011;57517;43.562;19.540;2022-08-21T03:40:55;9.30;;;6.15;;
70150;SDS011;57517;43.562;19.540;2022-08-21T03:43:21;9.10;;;6.07;;
70150;SDS011;57517;43.562;19.540;2022-08-21T03:45:47;8.57;;;6.00;;
70150;SDS011;57517;43.562;19.540;2022-08-21T03:48:14;9.48;;;5.97;;
70150;SDS011;57517;43.562;19.540;2022-08-21T03:50:40;11.00;;;5.68;;
70150;SDS011;57517;43.562;19.540;2022-08-21T03:53:07;11.02;;;5.80;;
70150;SDS011;57517;43.562;19.540;2022-08-21T03:55:34;8.57;;;5.47;;
70150;SDS011;57517;43.562;19.540;2022-08-21T03:58:00;11.68;;;6.13;;
70150;SDS011;57517;43.562;19.540;2022-08-21T04:00:26;8.90;;;5.15;;
70150;SDS011;57517;43.562;19.540;2022-08-21T04:02:52;9.13;;;5.65;;
70150;SDS011;57517;43.562;19.540;2022-08-21T04:05:19;9.63;;;6.20;;
70150;SDS011;57517;43.562;19.540;2022-08-21T04:07:58;11.15;;;5.93;;
70150;SDS011;57517;43.562;19.540;2022-08-21T04:10:25;10.77;;;5.68;;
70150;SDS011;57517;43.562;19.540;2022-08-21T04:12:52;7.78;;;5.30;;
70150;SDS011;57517;43.562;19.540;2022-08-21T04:15:19;8.40;;;5.40;;
70150;SDS011;57517;43.562;19.540;2022-08-21T04:17:45;10.88;;;5.53;;
70150;SDS011;57517;43.562;19.540;2022-08-21T04:20:11;12.23;;;5.40;;
70150;SDS011;57517;43.562;19.540;2022-08-21T04:22:37;10.38;;;5.45;;
70150;SDS011;57517;43.562;19.540;2022-08-21T04:25:04;9.73;;;5.68;;
70150;SDS011;57517;43.562;19.540;2022-08-21T04:27:30;9.07;;;5.15;;
70150;SDS011;57517;43.562;19.540;2022-08-21T04:29:56;8.68;;;5.72;;
70150;SDS011;57517;43.562;19.540;2022-08-21T04:32:23;8.38;;;5.53;;
70150;SDS011;57517;43.562;19.540;2022-08-21T04:34:49;10.07;;;6.47;;
70150;SDS011;57517;43.562;19.540;2022-08-21T04:37:16;9.55;;;6.38;;
70150;SDS011;57517;43.562;19.540;2022-08-21T04:39:42;10.65;;;6.20;;
70150;SDS011;57517;43.562;19.540;2022-08-21T04:42:08;8.57;;;6.00;;
70150;SDS011;57517;43.562;19.540;2022-08-21T04:44:34;11.35;;;6.43;;
70150;SDS011;57517;43.562;19.540;2022-08-21T04:47:00;8.15;;;5.63;;
70150;SDS011;57517;43.562;19.540;2022-08-21T04:49:27;8.85;;;6.18;;
70150;SDS011;57517;43.562;19.540;2022-08-21T04:51:53;9.27;;;6.57;;
70150;SDS011;57517;43.562;19.540;2022-08-21T04:54:20;13.05;;;7.82;;
70150;SDS011;57517;43.562;19.540;2022-08-21T04:56:54;12.95;;;7.97;;
70150;SDS011;57517;43.562;19.540;2022-08-21T04:59:25;12.93;;;8.02;;
70150;SDS011;57517;43.562;19.540;2022-08-21T05:01:53;9.38;;;6.70;;
70150;SDS011;57517;43.562;19.540;2022-08-21T05:04:22;10.82;;;7.18;;
70150;SDS011;57517;43.562;19.540;2022-08-21T05:06:50;11.00;;;6.65;;
70150;SDS011;57517;43.562;19.540;2022-08-21T05:09:17;11.13;;;6.50;;
70150;SDS011;57517;43.562;19.540;2022-08-21T05:11:44;7.85;;;5.50;;
70150;SDS011;57517;43.562;19.540;2022-08-21T05:14:11;10.07;;;6.18;;
70150;SDS011;57517;43.562;19.540;2022-08-21T05:16:37;9.70;;;6.10;;
70150;SDS011;57517;43.562;19.540;2022-08-21T05:19:04;8.30;;;5.78;;
70150;SDS011;57517;43.562;19.540;2022-08-21T05:21:31;8.88;;;6.18;;
70150;SDS011;57517;43.562;19.540;2022-08-21T05:23:57;12.10;;;6.35;;
70150;SDS011;57517;43.562;19.540;2022-08-21T05:26:23;11.23;;;6.57;;
70150;SDS011;57517;43.562;19.540;2022-08-21T05:28:49;9.32;;;6.38;;
70150;SDS011;57517;43.562;19.540;2022-08-21T05:31:15;14.32;;;7.30;;
70150;SDS011;57517;43.562;19.540;2022-08-21T05:33:41;12.10;;;7.40;;
70150;SDS011;57517;43.562;19.540;2022-08-21T05:36:07;10.82;;;6.90;;
70150;SDS011;57517;43.562;19.540;2022-08-21T05:38:34;11.30;;;7.43;;
70150;SDS011;57517;43.562;19.540;2022-08-21T05:41:00;11.70;;;6.35;;
70150;SDS011;57517;43.562;19.540;2022-08-21T05:43:26;8.65;;;6.38;;
70150;SDS011;57517;43.562;19.540;2022-08-21T05:45:53;12.45;;;7.03;;
70150;SDS011;57517;43.562;19.540;2022-08-21T05:48:20;12.50;;;6.65;;
70150;SDS011;57517;43.562;19.540;2022-08-21T05:50:48;11.73;;;7.40;;
70150;SDS011;57517;43.562;19.540;2022-08-21T05:53:15;14.35;;;12.85;;
70150;SDS011;57517;43.562;19.540;2022-08-21T05:55:43;9.65;;;7.45;;
70150;SDS011;57517;43.562;19.540;2022-08-21T05:58:10;10.48;;;7.25;;
70150;SDS011;57517;43.562;19.540;2022-08-21T06:00:36;11.50;;;7.93;;
70150;SDS011;57517;43.562;19.540;2022-08-21T06:03:02;9.80;;;6.22;;
70150;SDS011;57517;43.562;19.540;2022-08-21T06:05:29;11.10;;;7.82;;
70150;SDS011;57517;43.562;19.540;2022-08-21T06:07:55;10.18;;;6.68;;
70150;SDS011;57517;43.562;19.540;2022-08-21T06:10:21;12.32;;;10.18;;
70150;SDS011;57517;43.562;19.540;2022-08-21T06:12:52;12.30;;;10.10;;
70150;SDS011;57517;43.562;19.540;2022-08-21T06:15:18;13.15;;;9.02;;
70150;SDS011;57517;43.562;19.540;2022-08-21T06:17:45;10.10;;;7.97;;
70150;SDS011;57517;43.562;19.540;2022-08-21T06:20:11;12.88;;;9.77;;
70150;SDS011;57517;43.562;19.540;2022-08-21T06:22:37;13.45;;;10.40;;
70150;SDS011;57517;43.562;19.540;2022-08-21T06:25:03;12.40;;;8.70;;
70150;SDS011;57517;43.562;19.540;2022-08-21T06:27:29;9.32;;;6.70;;
70150;SDS011;57517;43.562;19.540;2022-08-21T06:29:55;30.00;;;26.83;;
70150;SDS011;57517;43.562;19.540;2022-08-21T06:32:22;18.98;;;15.98;;
70150;SDS011;57517;43.562;19.540;2022-08-21T06:34:48;11.07;;;8.70;;
70150;SDS011;57517;43.562;19.540;2022-08-21T06:37:14;12.20;;;8.50;;
70150;SDS011;57517;43.562;19.540;2022-08-21T06:39:40;12.52;;;7.38;;
70150;SDS011;57517;43.562;19.540;2022-08-21T06:42:12;14.30;;;10.55;;
70150;SDS011;57517;43.562;19.540;2022-08-21T06:44:38;10.70;;;8.63;;
70150;SDS011;57517;43.562;19.540;2022-08-21T06:47:04;13.15;;;8.20;;
70150;SDS011;57517;43.562;19.540;2022-08-21T06:49:30;9.93;;;7.70;;
70150;SDS011;57517;43.562;19.540;2022-08-21T06:51:56;13.13;;;9.05;;
70150;SDS011;57517;43.562;19.540;2022-08-21T06:54:22;15.57;;;9.50;;
70150;SDS011;57517;43.562;19.540;2022-08-21T06:56:49;11.38;;;7.43;;
70150;SDS011;57517;43.562;19.540;2022-08-21T06:59:15;9.48;;;6.78;;
70150;SDS011;57517;43.562;19.540;2022-08-21T07:01:41;13.95;;;7.30;;
70150;SDS011;57517;43.562;19.540;2022-08-21T07:04:07;14.68;;;7.57;;
70150;SDS011;57517;43.562;19.540;2022-08-21T07:06:33;9.50;;;7.00;;
70150;SDS011;57517;43.562;19.540;2022-08-21T07:08:59;12.43;;;8.48;;
70150;SDS011;57517;43.562;19.540;2022-08-21T07:11:26;11.85;;;7.28;;
70150;SDS011;57517;43.562;19.540;2022-08-21T07:13:52;10.35;;;8.10;;
70150;SDS011;57517;43.562;19.540;2022-08-21T07:16:21;13.77;;;12.02;;
70150;SDS011;57517;43.562;19.540;2022-08-21T07:18:47;10.30;;;7.95;;
70150;SDS011;57517;43.562;19.540;2022-08-21T07:21:14;22.60;;;16.08;;
70150;SDS011;57517;43.562;19.540;2022-08-21T07:23:42;26.77;;;11.02;;
70150;SDS011;57517;43.562;19.540;2022-08-21T07:26:09;12.52;;;7.20;;
70150;SDS011;57517;43.562;19.540;2022-08-21T07:28:35;10.90;;;7.53;;
70150;SDS011;57517;43.562;19.540;2022-08-21T07:31:02;12.52;;;7.30;;
70150;SDS011;57517;43.562;19.540;2022-08-21T07:33:29;10.65;;;7.35;;
70150;SDS011;57517;43.562;19.540;2022-08-21T07:35:56;10.15;;;8.65;;
70150;SDS011;57517;43.562;19.540;2022-08-21T07:38:22;10.68;;;6.60;;
70150;SDS011;57517;43.562;19.540;2022-08-21T07:40:48;10.60;;;6.63;;
70150;SDS011;57517;43.562;19.540;2022-08-21T07:43:15;9.63;;;7.15;;
70150;SDS011;57517;43.562;19.540;2022-08-21T07:45:43;13.07;;;7.78;;
70150;SDS011;57517;43.562;19.540;2022-08-21T07:48:10;11.52;;;8.00;;
70150;SDS011;57517;43.562;19.540;2022-08-21T07:50:36;16.17;;;7.85;;
70150;SDS011;57517;43.562;19.540;2022-08-21T07:53:03;11.52;;;8.48;;
70150;SDS011;57517;43.562;19.540;2022-08-21T07:55:29;12.57;;;8.38;;
70150;SDS011;57517;43.562;19.540;2022-08-21T07:57:55;10.52;;;6.90;;
70150;SDS011;57517;43.562;19.540;2022-08-21T08:00:22;9.98;;;6.95;;
70150;SDS011;57517;43.562;19.540;2022-08-21T08:02:51;9.90;;;6.78;;
70150;SDS011;57517;43.562;19.540;2022-08-21T08:05:26;8.48;;;6.20;;
70150;SDS011;57517;43.562;19.540;2022-08-21T08:07:54;13.23;;;9.10;;
70150;SDS011;57517;43.562;19.540;2022-08-21T08:10:21;11.93;;;7.10;;
70150;SDS011;57517;43.562;19.540;2022-08-21T08:12:48;8.82;;;6.60;;
70150;SDS011;57517;43.562;19.540;2022-08-21T08:15:18;9.80;;;6.90;;
70150;SDS011;57517;43.562;19.540;2022-08-21T08:17:46;9.20;;;6.70;;
70150;SDS011;57517;43.562;19.540;2022-08-21T08:20:13;8.88;;;6.88;;
70150;SDS011;57517;43.562;19.540;2022-08-21T08:22:40;9.35;;;6.45;;
70150;SDS011;57517;43.562;19.540;2022-08-21T08:25:08;9.75;;;6.53;;
70150;SDS011;57517;43.562;19.540;2022-08-21T08:27:35;10.35;;;7.78;;
70150;SDS011;57517;43.562;19.540;2022-08-21T08:30:03;15.10;;;12.10;;
70150;SDS011;57517;43.562;19.540;2022-08-21T08:32:30;13.77;;;9.05;;
70150;SDS011;57517;43.562;19.540;2022-08-21T08:34:58;15.88;;;10.48;;
70150;SDS011;57517;43.562;19.540;2022-08-21T08:37:24;12.32;;;8.50;;
70150;SDS011;57517;43.562;19.540;2022-08-21T08:39:50;9.93;;;7.03;;
70150;SDS011;57517;43.562;19.540;2022-08-21T08:42:24;10.20;;;7.35;;
70150;SDS011;57517;43.562;19.540;2022-08-21T08:45:00;9.40;;;6.70;;
70150;SDS011;57517;43.562;19.540;2022-08-21T08:47:31;203.80;;;98.40;;
70150;SDS011;57517;43.562;19.540;2022-08-21T08:50:07;433.75;;;194.50;;
70150;SDS011;57517;43.562;19.540;2022-08-21T08:52:45;437.65;;;211.98;;
70150;SDS011;57517;43.562;19.540;2022-08-21T08:55:18;233.57;;;107.20;;
70150;SDS011;57517;43.562;19.540;2022-08-21T08:57:47;218.05;;;104.30;;
70150;SDS011;57517;43.562;19.540;2022-08-21T09:00:17;104.60;;;50.80;;
70150;SDS011;57517;43.562;19.540;2022-08-21T09:02:45;76.50;;;36.13;;
70150;SDS011;57517;43.562;19.540;2022-08-21T09:05:23;75.93;;;38.88;;
70150;SDS011;57517;43.562;19.540;2022-08-21T09:10:57;27.90;;;13.43;;
70150;SDS011;57517;43.562;19.540;2022-08-21T09:19:04;20.63;;;11.85;;
70150;SDS011;57517;43.562;19.540;2022-08-21T09:24:47;20.55;;;15.57;;
70150;SDS011;57517;43.562;19.540;2022-08-21T09:27:33;29.63;;;16.00;;
70150;SDS011;57517;43.562;19.540;2022-08-21T09:29:59;18.20;;;13.40;;
70150;SDS011;57517;43.562;19.540;2022-08-21T09:32:29;18.05;;;11.80;;
70150;SDS011;57517;43.562;19.540;2022-08-21T09:37:49;13.85;;;8.45;;
70150;SDS011;57517;43.562;19.540;2022-08-21T09:40:19;14.60;;;9.70;;
70150;SDS011;57517;43.562;19.540;2022-08-21T09:42:56;19.73;;;10.52;;
70150;SDS011;57517;43.562;19.540;2022-08-21T09:45:42;17.75;;;9.70;;
70150;SDS011;57517;43.562;19.540;2022-08-21T09:53:30;11.52;;;7.57;;
70150;SDS011;57517;43.562;19.540;2022-08-21T09:55:57;15.00;;;8.00;;
70150;SDS011;57517;43.562;19.540;2022-08-21T09:58:49;11.43;;;7.40;;
70150;SDS011;57517;43.562;19.540;2022-08-21T10:01:18;11.52;;;5.63;;
70150;SDS011;57517;43.562;19.540;2022-08-21T10:03:46;7.85;;;5.65;;
70150;SDS011;57517;43.562;19.540;2022-08-21T10:06:26;7.80;;;4.30;;
70150;SDS011;57517;43.562;19.540;2022-08-21T10:09:06;11.30;;;6.07;;
70150;SDS011;57517;43.562;19.540;2022-08-21T10:11:33;11.25;;;5.63;;
70150;SDS011;57517;43.562;19.540;2022-08-21T10:25:58;8.20;;;5.70;;
70150;SDS011;57517;43.562;19.540;2022-08-21T10:31:32;8.18;;;5.35;;
70150;SDS011;57517;43.562;19.540;2022-08-21T10:34:24;6.88;;;4.75;;
70150;SDS011;57517;43.562;19.540;2022-08-21T10:40:07;8.05;;;5.47;;
70150;SDS011;57517;43.562;19.540;2022-08-21T10:48:02;8.77;;;6.88;;
70150;SDS011;57517;43.562;19.540;2022-08-21T10:53:35;8.63;;;5.40;;
70150;SDS011;57517;43.562;19.540;2022-08-21T10:56:12;7.65;;;5.22;;
70150;SDS011;57517;43.562;19.540;2022-08-21T11:01:21;7.22;;;4.10;;
70150;SDS011;57517;43.562;19.540;2022-08-21T11:04:53;6.35;;;4.00;;
70150;SDS011;57517;43.562;19.540;2022-08-21T11:07:02;6.68;;;3.85;;
70150;SDS011;57517;43.562;19.540;2022-08-21T11:09:34;5.93;;;3.90;;
70150;SDS011;57517;43.562;19.540;2022-08-21T11:12:47;5.85;;;3.85;;
70150;SDS011;57517;43.562;19.540;2022-08-21T11:17:51;5.95;;;4.07;;
70150;SDS011;57517;43.562;19.540;2022-08-21T11:23:03;5.78;;;3.80;;
70150;SDS011;57517;43.562;19.540;2022-08-21T11:28:28;4.93;;;3.42;;
70150;SDS011;57517;43.562;19.540;2022-08-21T11:40:37;6.28;;;4.18;;
70150;SDS011;57517;43.562;19.540;2022-08-21T11:43:17;6.22;;;4.10;;
70150;SDS011;57517;43.562;19.540;2022-08-21T11:51:41;7.68;;;4.95;;
70150;SDS011;57517;43.562;19.540;2022-08-21T11:54:21;7.47;;;4.43;;
70150;SDS011;57517;43.562;19.540;2022-08-21T11:56:59;6.45;;;4.63;;
70150;SDS011;57517;43.562;19.540;2022-08-21T11:59:37;5.50;;;3.78;;
70150;SDS011;57517;43.562;19.540;2022-08-21T12:02:09;5.85;;;3.80;;
70150;SDS011;57517;43.562;19.540;2022-08-21T12:04:51;5.07;;;3.58;;
70150;SDS011;57517;43.562;19.540;2022-08-21T12:10:31;6.47;;;4.50;;
70150;SDS011;57517;43.562;19.540;2022-08-21T12:13:20;8.60;;;5.05;;
70150;SDS011;57517;43.562;19.540;2022-08-21T12:15:48;7.75;;;5.78;;
70150;SDS011;57517;43.562;19.540;2022-08-21T12:21:24;7.07;;;5.00;;
70150;SDS011;57517;43.562;19.540;2022-08-21T12:24:03;7.20;;;5.32;;
70150;SDS011;57517;43.562;19.540;2022-08-21T12:26:51;8.95;;;6.72;;
70150;SDS011;57517;43.562;19.540;2022-08-21T12:29:30;10.48;;;7.28;;
70150;SDS011;57517;43.562;19.540;2022-08-21T12:34:49;6.97;;;5.38;;
70150;SDS011;57517;43.562;19.540;2022-08-21T12:39:57;6.65;;;5.68;;
70150;SDS011;57517;43.562;19.540;2022-08-21T12:42:37;7.78;;;5.30;;
70150;SDS011;57517;43.562;19.540;2022-08-21T12:45:29;9.73;;;7.03;;
70150;SDS011;57517;43.562;19.540;2022-08-21T12:47:56;9.02;;;6.28;;
70150;SDS011;57517;43.562;19.540;2022-08-21T12:50:41;8.77;;;6.25;;
70150;SDS011;57517;43.562;19.540;2022-08-21T12:53:36;10.23;;;8.45;;
70150;SDS011;57517;43.562;19.540;2022-08-21T12:56:14;12.02;;;7.28;;
70150;SDS011;57517;43.562;19.540;2022-08-21T12:58:44;9.60;;;7.50;;
70150;SDS011;57517;43.562;19.540;2022-08-21T13:04:03;8.65;;;6.85;;
70150;SDS011;57517;43.562;19.540;2022-08-21T13:06:38;10.93;;;7.20;;
70150;SDS011;57517;43.562;19.540;2022-08-21T13:09:08;9.18;;;6.90;;
70150;SDS011;57517;43.562;19.540;2022-08-21T13:11:37;7.22;;;4.13;;
70150;SDS011;57517;43.562;19.540;2022-08-21T13:14:05;9.50;;;6.32;;
70150;SDS011;57517;43.562;19.540;2022-08-21T13:16:53;9.45;;;6.43;;
70150;SDS011;57517;43.562;19.540;2022-08-21T13:19:22;11.75;;;7.97;;
70150;SDS011;57517;43.562;19.540;2022-08-21T13:21:49;11.45;;;9.30;;
70150;SDS011;57517;43.562;19.540;2022-08-21T13:26:45;9.90;;;6.00;;
70150;SDS011;57517;43.562;19.540;2022-08-21T13:29:13;7.15;;;6.13;;
70150;SDS011;57517;43.562;19.540;2022-08-21T13:31:42;6.32;;;4.88;;
70150;SDS011;57517;43.562;19.540;2022-08-21T13:34:22;5.50;;;4.32;;
70150;SDS011;57517;43.562;19.540;2022-08-21T13:36:52;4.93;;;2.92;;
70150;SDS011;57517;43.562;19.540;2022-08-21T13:39:22;6.70;;;3.72;;
70150;SDS011;57517;43.562;19.540;2022-08-21T13:41:50;5.25;;;3.67;;
70150;SDS011;57517;43.562;19.540;2022-08-21T13:44:21;5.28;;;4.20;;
70150;SDS011;57517;43.562;19.540;2022-08-21T13:46:51;4.00;;;2.90;;
70150;SDS011;57517;43.562;19.540;2022-08-21T13:49:19;4.93;;;3.33;;
70150;SDS011;57517;43.562;19.540;2022-08-21T13:51:51;4.35;;;3.08;;
70150;SDS011;57517;43.562;19.540;2022-08-21T13:57:25;5.10;;;3.72;;
70150;SDS011;57517;43.562;19.540;2022-08-21T13:59:53;10.43;;;7.35;;
70150;SDS011;57517;43.562;19.540;2022-08-21T14:02:43;10.95;;;7.63;;
70150;SDS011;57517;43.562;19.540;2022-08-21T14:05:31;23.95;;;12.93;;
70150;SDS011;57517;43.562;19.540;2022-08-21T14:10:30;34.42;;;19.80;;
70150;SDS011;57517;43.562;19.540;2022-08-21T14:15:25;20.33;;;15.52;;
70150;SDS011;57517;43.562;19.540;2022-08-21T14:17:54;83.15;;;58.53;;
70150;SDS011;57517;43.562;19.540;2022-08-21T14:20:34;107.35;;;78.50;;
70150;SDS011;57517;43.562;19.540;2022-08-21T14:23:01;52.45;;;38.53;;
70150;SDS011;57517;43.562;19.540;2022-08-21T14:25:28;59.03;;;47.72;;
70150;SDS011;57517;43.562;19.540;2022-08-21T14:28:15;25.25;;;19.92;;
70150;SDS011;57517;43.562;19.540;2022-08-21T14:30:48;39.78;;;30.17;;
70150;SDS011;57517;43.562;19.540;2022-08-21T14:33:32;19.00;;;15.48;;
70150;SDS011;57517;43.562;19.540;2022-08-21T14:35:58;13.30;;;9.73;;
70150;SDS011;57517;43.562;19.540;2022-08-21T14:38:27;7.75;;;6.20;;
70150;SDS011;57517;43.562;19.540;2022-08-21T14:40:57;7.82;;;5.82;;
70150;SDS011;57517;43.562;19.540;2022-08-21T14:43:25;10.63;;;8.93;;
70150;SDS011;57517;43.562;19.540;2022-08-21T14:45:53;20.25;;;18.10;;
70150;SDS011;57517;43.562;19.540;2022-08-21T14:48:19;34.35;;;30.13;;
70150;SDS011;57517;43.562;19.540;2022-08-21T14:50:45;16.27;;;13.38;;
70150;SDS011;57517;43.562;19.540;2022-08-21T14:53:12;11.73;;;8.10;;
70150;SDS011;57517;43.562;19.540;2022-08-21T14:55:37;8.50;;;5.80;;
70150;SDS011;57517;43.562;19.540;2022-08-21T14:58:23;12.57;;;10.20;;
70150;SDS011;57517;43.562;19.540;2022-08-21T15:00:51;14.80;;;11.65;;
70150;SDS011;57517;43.562;19.540;2022-08-21T15:03:18;17.67;;;15.60;;
70150;SDS011;57517;43.562;19.540;2022-08-21T15:05:46;7.80;;;6.82;;
70150;SDS011;57517;43.562;19.540;2022-08-21T15:08:12;11.25;;;7.07;;
70150;SDS011;57517;43.562;19.540;2022-08-21T15:10:38;9.80;;;6.97;;
70150;SDS011;57517;43.562;19.540;2022-08-21T15:13:05;6.85;;;5.05;;
70150;SDS011;57517;43.562;19.540;2022-08-21T15:15:34;10.48;;;8.35;;
70150;SDS011;57517;43.562;19.540;2022-08-21T15:18:04;6.47;;;4.80;;
70150;SDS011;57517;43.562;19.540;2022-08-21T15:20:30;5.45;;;3.70;;
70150;SDS011;57517;43.562;19.540;2022-08-21T15:22:58;7.32;;;4.95;;
70150;SDS011;57517;43.562;19.540;2022-08-21T15:25:25;5.65;;;4.00;;
70150;SDS011;57517;43.562;19.540;2022-08-21T15:27:59;5.85;;;4.20;;
70150;SDS011;57517;43.562;19.540;2022-08-21T15:30:26;7.85;;;7.03;;
70150;SDS011;57517;43.562;19.540;2022-08-21T15:32:53;12.07;;;10.68;;
70150;SDS011;57517;43.562;19.540;2022-08-21T15:35:19;10.40;;;8.18;;
70150;SDS011;57517;43.562;19.540;2022-08-21T15:37:44;6.00;;;5.20;;
70150;SDS011;57517;43.562;19.540;2022-08-21T15:40:10;9.68;;;6.25;;
70150;SDS011;57517;43.562;19.540;2022-08-21T15:42:38;6.47;;;4.93;;
70150;SDS011;57517;43.562;19.540;2022-08-21T15:45:12;6.95;;;4.55;;
70150;SDS011;57517;43.562;19.540;2022-08-21T15:47:39;16.00;;;10.27;;
70150;SDS011;57517;43.562;19.540;2022-08-21T15:50:10;9.38;;;7.50;;
70150;SDS011;57517;43.562;19.540;2022-08-21T15:52:38;13.05;;;10.40;;
70150;SDS011;57517;43.562;19.540;2022-08-21T15:55:05;9.15;;;8.23;;
70150;SDS011;57517;43.562;19.540;2022-08-21T15:57:31;7.43;;;5.10;;
70150;SDS011;57517;43.562;19.540;2022-08-21T15:59:58;7.15;;;4.60;;
70150;SDS011;57517;43.562;19.540;2022-08-21T16:02:35;5.40;;;3.95;;
70150;SDS011;57517;43.562;19.540;2022-08-21T16:05:01;7.57;;;5.68;;
70150;SDS011;57517;43.562;19.540;2022-08-21T16:07:27;7.18;;;4.97;;
70150;SDS011;57517;43.562;19.540;2022-08-21T16:09:53;4.65;;;3.25;;
70150;SDS011;57517;43.562;19.540;2022-08-21T16:12:24;7.60;;;6.05;;
70150;SDS011;57517;43.562;19.540;2022-08-21T16:14:59;6.68;;;4.43;;
70150;SDS011;57517;43.562;19.540;2022-08-21T16:17:31;6.35;;;4.25;;